CheckWX is a tool to help pilots better visualize weather data.  It is not intended as a substitute for an official pre-flight weather briefing.

03:45:50 UTC

KEKX METAR
Addington Field Airport
Elizabethtown, Kentucky, USA
Current

31 mins ago

KEKX 170315Z AUTO 00000KT 10SM CLR 03/00 A3010 RMK AO2 T00291003
Observed
Feb-17 @ 03:15 UTC
Visibility
10 SM
Flight Rules
VFR
Cloud Levels
  • Clear skies
Temperature
C / 37°F
Dewpoint
-0°C / 32°F
Humidity
81%
Altimeter
30.1" Hg
Pressure
1019.32 hPa
Previous

51 mins ago

KEKX 170255Z AUTO 02003KT 10SM CLR 05/00 A3011 RMK AO2 T00471002
Observed
Feb-17 @ 02:55 UTC
Wind
  • 020° at 3 KTS
Visibility
10 SM
Flight Rules
VFR
Cloud Levels
  • Clear skies
Temperature
C / 41°F
Dewpoint
-0°C / 32°F
Humidity
70%
Altimeter
30.11" Hg
Pressure
1019.62 hPa
Previous

1 hour ago

KEKX 170235Z AUTO 00000KT 10SM CLR 04/00 A3011 RMK AO2 T00430000
Observed
Feb-17 @ 02:35 UTC
Visibility
10 SM
Flight Rules
VFR
Cloud Levels
  • Clear skies
Temperature
C / 39°F
Dewpoint
C / 32°F
Humidity
75%
Altimeter
30.11" Hg
Pressure
1019.62 hPa